createdAt,value
2019-03-20T00:01:02.795Z,3.40
2019-03-20T00:02:16.014Z,3.50
2019-03-20T00:03:29.269Z,3.50
2019-03-20T00:04:49.644Z,3.40
2019-03-20T00:05:57.457Z,3.20
2019-03-20T00:07:10.686Z,3.20
2019-03-20T00:08:23.910Z,3.20
2019-03-20T00:09:37.133Z,3.30
2019-03-20T00:10:50.453Z,3.30
2019-03-20T00:12:03.677Z,3.40
2019-03-20T00:13:16.901Z,3.40
2019-03-20T00:14:30.142Z,3.40
2019-03-20T00:15:43.375Z,3.40
2019-03-20T00:16:56.597Z,3.20
2019-03-20T00:18:11.059Z,3.10
2019-03-20T00:19:24.287Z,3.10
2019-03-20T00:20:37.519Z,3.20
2019-03-20T00:21:50.750Z,3.20
2019-03-20T00:23:03.987Z,3.20
2019-03-20T00:24:17.201Z,3.10
2019-03-20T00:25:30.438Z,3.00
2019-03-20T00:26:43.689Z,2.90
2019-03-20T00:27:57.643Z,2.80
2019-03-20T00:29:10.874Z,2.80
2019-03-20T00:30:24.127Z,2.80
2019-03-20T00:31:37.412Z,2.80
2019-03-20T00:32:50.643Z,2.80
2019-03-20T00:34:03.861Z,2.70
2019-03-20T00:35:17.164Z,2.80
2019-03-20T00:36:30.401Z,2.80
2019-03-20T00:37:43.645Z,2.90
2019-03-20T00:38:56.930Z,2.90
2019-03-20T00:40:12.957Z,3.00
2019-03-20T00:41:26.178Z,3.00
2019-03-20T00:42:39.403Z,3.10
2019-03-20T00:43:52.633Z,3.10
2019-03-20T00:45:08.594Z,3.20
2019-03-20T00:46:21.830Z,3.10
2019-03-20T00:47:35.050Z,3.20
2019-03-20T00:48:48.281Z,3.20
2019-03-20T00:50:01.508Z,3.10
2019-03-20T00:51:14.742Z,3.10
2019-03-20T00:52:27.997Z,3.00
2019-03-20T00:53:41.234Z,3.00
2019-03-20T00:54:54.453Z,2.90
2019-03-20T00:56:07.689Z,3.00
2019-03-20T00:57:22.174Z,3.00
2019-03-20T00:58:35.408Z,3.00
2019-03-20T00:59:48.629Z,3.00
2019-03-20T01:01:01.862Z,3.00
2019-03-20T01:02:15.107Z,3.00
2019-03-20T01:03:28.334Z,3.00
2019-03-20T01:04:41.560Z,3.00
2019-03-20T01:05:54.777Z,3.00
2019-03-20T01:07:10.118Z,3.00
2019-03-20T01:08:22.962Z,2.90
2019-03-20T01:09:36.185Z,2.90
2019-03-20T01:10:49.414Z,2.70
2019-03-20T01:12:02.653Z,2.80
2019-03-20T01:13:15.880Z,2.70
2019-03-20T01:14:29.106Z,2.70
2019-03-20T01:15:42.406Z,2.70
2019-03-20T01:16:55.649Z,2.60
2019-03-20T01:18:08.894Z,2.60
2019-03-20T01:19:22.126Z,2.40
2019-03-20T01:20:35.812Z,2.40
2019-03-20T01:21:49.043Z,2.50
2019-03-20T01:23:02.267Z,2.50
2019-03-20T01:24:15.497Z,2.60
2019-03-20T01:25:28.719Z,2.60
2019-03-20T01:26:41.954Z,2.70
2019-03-20T01:27:55.187Z,2.60
2019-03-20T01:29:08.406Z,2.60
2019-03-20T01:30:29.549Z,2.60
2019-03-20T01:31:42.785Z,2.40
2019-03-20T01:32:56.019Z,2.50
2019-03-20T01:34:09.242Z,2.50
2019-03-20T01:35:24.201Z,2.50
2019-03-20T01:36:37.586Z,2.50
2019-03-20T01:37:50.808Z,2.50
2019-03-20T01:39:05.278Z,2.50
2019-03-20T01:40:18.501Z,2.50
2019-03-20T01:41:38.052Z,2.60
2019-03-20T01:42:46.675Z,2.50
2019-03-20T01:43:59.911Z,2.50
2019-03-20T01:45:13.217Z,2.50
2019-03-20T01:46:26.534Z,2.50
2019-03-20T01:47:39.775Z,2.50
2019-03-20T01:48:53.001Z,2.50
2019-03-20T01:50:06.702Z,2.50
2019-03-20T01:51:20.975Z,2.40
2019-03-20T01:52:34.199Z,2.30
2019-03-20T01:53:47.414Z,2.30
2019-03-20T01:55:00.637Z,2.30
2019-03-20T01:56:14.106Z,2.30
2019-03-20T01:57:27.338Z,2.30
2019-03-20T01:58:40.558Z,2.30
2019-03-20T01:59:53.786Z,2.30
2019-03-20T02:01:07.006Z,2.30
2019-03-20T02:02:20.242Z,2.30
2019-03-20T02:03:33.474Z,2.30
2019-03-20T02:04:46.697Z,2.20
2019-03-20T02:05:59.918Z,2.30
2019-03-20T02:07:13.202Z,2.30
2019-03-20T02:08:26.435Z,2.30
2019-03-20T02:09:39.654Z,2.30
2019-03-20T02:10:52.885Z,2.30
2019-03-20T02:12:06.119Z,2.30
2019-03-20T02:13:19.346Z,2.30
2019-03-20T02:14:32.574Z,2.30
2019-03-20T02:15:45.810Z,2.20
2019-03-20T02:16:59.042Z,2.30
2019-03-20T02:18:12.282Z,2.30
2019-03-20T02:19:28.216Z,2.30
2019-03-20T02:20:41.436Z,2.30
2019-03-20T02:21:54.670Z,2.30
2019-03-20T02:23:07.917Z,2.20
2019-03-20T02:24:21.147Z,2.20
2019-03-20T02:25:34.375Z,2.20
2019-03-20T02:26:47.611Z,2.10
2019-03-20T02:28:00.847Z,2.00
2019-03-20T02:29:14.069Z,1.80
2019-03-20T02:30:27.334Z,1.80
2019-03-20T02:31:40.598Z,1.80
2019-03-20T02:32:53.839Z,1.80
2019-03-20T02:34:07.061Z,1.80
2019-03-20T02:35:20.288Z,1.80
2019-03-20T02:36:33.767Z,1.80
2019-03-20T02:37:48.010Z,1.80
2019-03-20T02:39:01.234Z,1.80
2019-03-20T02:40:15.017Z,1.80
2019-03-20T02:41:28.242Z,1.80
2019-03-20T02:42:41.486Z,1.80
2019-03-20T02:43:54.706Z,1.80
2019-03-20T02:45:14.646Z,1.70
2019-03-20T02:46:27.896Z,1.60
2019-03-20T02:47:41.119Z,1.50
2019-03-20T02:48:54.348Z,1.60
2019-03-20T02:50:12.085Z,1.60
2019-03-20T02:51:25.394Z,1.60
2019-03-20T02:52:39.081Z,1.70
2019-03-20T02:53:52.307Z,1.70
2019-03-20T02:55:08.335Z,1.70
2019-03-20T02:56:21.558Z,1.70
2019-03-20T02:57:35.365Z,1.80
2019-03-20T02:58:48.583Z,1.80
2019-03-20T03:00:01.808Z,1.80
2019-03-20T03:01:15.038Z,1.80
2019-03-20T03:02:28.257Z,1.80
2019-03-20T03:03:41.502Z,1.70
2019-03-20T03:04:54.872Z,1.70
2019-03-20T03:06:08.096Z,1.70
2019-03-20T03:07:21.331Z,1.70
2019-03-20T03:08:34.570Z,1.80
2019-03-20T03:09:47.839Z,1.70
2019-03-20T03:11:01.065Z,1.70
2019-03-20T03:12:14.278Z,1.70
2019-03-20T03:13:27.516Z,1.70
2019-03-20T03:14:40.744Z,1.70
2019-03-20T03:15:53.970Z,1.70
2019-03-20T03:17:07.251Z,1.50
2019-03-20T03:18:20.559Z,1.50
2019-03-20T03:19:33.793Z,1.50
2019-03-20T03:20:47.019Z,1.50
2019-03-20T03:22:00.243Z,1.50
2019-03-20T03:23:13.493Z,1.50
2019-03-20T03:24:26.721Z,1.50
2019-03-20T03:25:39.935Z,1.50
2019-03-20T03:26:53.157Z,1.40
2019-03-20T03:28:06.391Z,1.40
2019-03-20T03:29:19.622Z,1.40
2019-03-20T03:30:32.847Z,1.30
2019-03-20T03:31:46.143Z,1.30
2019-03-20T03:32:59.386Z,1.30
2019-03-20T03:34:12.720Z,1.30
2019-03-20T03:35:25.997Z,1.40
2019-03-20T03:36:39.227Z,1.40
2019-03-20T03:37:52.474Z,1.40
2019-03-20T03:39:06.839Z,1.40
2019-03-20T03:40:20.429Z,1.40
2019-03-20T03:41:33.694Z,1.40
2019-03-20T03:42:47.000Z,1.40
2019-03-20T03:44:00.230Z,1.50
2019-03-20T03:45:16.738Z,1.50
2019-03-20T03:46:29.965Z,1.50
2019-03-20T03:47:43.203Z,1.50
2019-03-20T03:48:56.494Z,1.50
2019-03-20T03:50:10.162Z,1.40
2019-03-20T03:51:23.450Z,1.40
2019-03-20T03:52:36.681Z,1.40
2019-03-20T03:53:49.910Z,1.40
2019-03-20T03:55:03.380Z,1.40
2019-03-20T03:56:16.611Z,1.30
2019-03-20T03:57:31.464Z,1.40
2019-03-20T03:58:44.703Z,1.40
2019-03-20T03:59:57.933Z,1.30
2019-03-20T04:01:11.154Z,1.30
2019-03-20T04:02:24.374Z,1.20
2019-03-20T04:03:37.605Z,1.20
2019-03-20T04:04:50.853Z,1.30
2019-03-20T04:06:04.083Z,1.30
2019-03-20T04:07:17.306Z,1.30
2019-03-20T04:08:30.529Z,1.30
2019-03-20T04:09:43.774Z,1.30
2019-03-20T04:10:56.986Z,1.40
2019-03-20T04:12:10.216Z,1.40
2019-03-20T04:13:23.444Z,1.30
2019-03-20T04:14:36.682Z,1.30
2019-03-20T04:15:49.917Z,1.40
2019-03-20T04:17:05.904Z,1.40
2019-03-20T04:18:19.135Z,1.40
2019-03-20T04:19:32.616Z,1.40
2019-03-20T04:20:45.844Z,1.40
2019-03-20T04:21:59.058Z,1.50
2019-03-20T04:23:12.305Z,1.40
2019-03-20T04:24:25.532Z,1.50
2019-03-20T04:25:38.921Z,1.40
2019-03-20T04:26:52.142Z,1.40
2019-03-20T04:28:05.364Z,1.30
2019-03-20T04:29:18.597Z,1.30
2019-03-20T04:30:33.462Z,1.30
2019-03-20T04:31:46.684Z,1.20
2019-03-20T04:32:59.915Z,1.20
2019-03-20T04:34:13.146Z,1.20
2019-03-20T04:35:26.373Z,1.20
2019-03-20T04:36:47.611Z,1.10
2019-03-20T04:37:54.541Z,1.10
2019-03-20T04:39:07.781Z,1.10
2019-03-20T04:40:21.010Z,1.00
2019-03-20T04:41:34.237Z,1.00
2019-03-20T04:42:47.722Z,1.00
2019-03-20T04:44:00.940Z,0.90
2019-03-20T04:45:14.713Z,0.90
2019-03-20T04:46:27.968Z,0.90
2019-03-20T04:47:41.498Z,0.80
2019-03-20T04:48:54.747Z,0.80
2019-03-20T04:50:11.596Z,0.80
2019-03-20T04:51:25.054Z,0.90
2019-03-20T04:52:38.293Z,0.90
2019-03-20T04:53:51.527Z,0.90
2019-03-20T04:55:05.794Z,1.00
2019-03-20T04:56:19.066Z,0.90
2019-03-20T04:57:32.293Z,1.00
2019-03-20T04:58:45.532Z,1.00
2019-03-20T04:59:58.757Z,1.00
2019-03-20T05:01:11.998Z,1.00
2019-03-20T05:02:25.230Z,0.90
2019-03-20T05:03:38.459Z,0.90
2019-03-20T05:04:51.691Z,0.90
2019-03-20T05:06:04.918Z,0.80
2019-03-20T05:07:18.153Z,0.80
2019-03-20T05:08:31.378Z,0.80
2019-03-20T05:09:44.607Z,0.70
2019-03-20T05:10:58.824Z,0.70
2019-03-20T05:12:12.054Z,0.60
2019-03-20T05:13:25.297Z,0.60
2019-03-20T05:14:38.516Z,0.60
2019-03-20T05:15:51.736Z,0.60
2019-03-20T05:17:06.607Z,0.50
2019-03-20T05:18:19.873Z,0.50
2019-03-20T05:19:37.660Z,0.60
2019-03-20T05:20:52.814Z,0.60
2019-03-20T05:22:10.282Z,0.60
2019-03-20T05:23:26.905Z,0.70
2019-03-20T05:24:40.134Z,0.70
2019-03-20T05:25:54.941Z,0.60
2019-03-20T05:27:08.266Z,0.50
2019-03-20T05:28:21.961Z,0.40
2019-03-20T05:29:35.181Z,0.50
2019-03-20T05:30:48.426Z,0.40
2019-03-20T05:32:01.672Z,0.40
2019-03-20T05:33:14.905Z,0.40
2019-03-20T05:34:28.127Z,0.50
2019-03-20T05:35:41.630Z,0.50
2019-03-20T05:36:57.610Z,0.50
2019-03-20T05:38:10.860Z,0.60
2019-03-20T05:39:24.087Z,0.60
2019-03-20T05:40:37.310Z,0.60
2019-03-20T05:41:50.543Z,0.60
2019-03-20T05:43:03.765Z,0.70
2019-03-20T05:44:17.016Z,0.70
2019-03-20T05:45:30.239Z,0.70
2019-03-20T05:46:43.466Z,0.80
2019-03-20T05:47:57.415Z,0.70
2019-03-20T05:49:10.642Z,0.80
2019-03-20T05:50:23.899Z,0.80
2019-03-20T05:51:37.120Z,0.70
2019-03-20T05:52:50.345Z,0.80
2019-03-20T05:54:04.134Z,0.70
2019-03-20T05:55:17.443Z,0.80
2019-03-20T05:56:30.678Z,0.80
2019-03-20T05:57:43.898Z,0.90
2019-03-20T05:58:57.127Z,0.90
2019-03-20T06:00:21.352Z,1.00
2019-03-20T06:01:34.590Z,1.00
2019-03-20T06:02:47.821Z,1.00
2019-03-20T06:04:01.053Z,1.10
2019-03-20T06:05:14.269Z,1.20
2019-03-20T06:06:27.500Z,1.10
2019-03-20T06:07:40.747Z,1.20
2019-03-20T06:08:53.962Z,1.30
2019-03-20T06:10:10.234Z,1.30
2019-03-20T06:11:23.463Z,1.20
2019-03-20T06:12:36.694Z,1.20
2019-03-20T06:13:49.934Z,1.20
2019-03-20T06:15:03.227Z,1.30
2019-03-20T06:16:16.447Z,1.30
2019-03-20T06:17:29.682Z,1.30
2019-03-20T06:18:42.897Z,1.40
2019-03-20T06:19:56.134Z,1.50
2019-03-20T06:21:09.366Z,1.60
2019-03-20T06:22:22.704Z,1.60
2019-03-20T06:23:36.003Z,1.50
2019-03-20T06:24:49.246Z,1.60
2019-03-20T06:26:02.490Z,1.60
2019-03-20T06:27:15.709Z,1.60
2019-03-20T06:28:28.942Z,1.60
2019-03-20T06:29:42.174Z,1.50
2019-03-20T06:30:55.399Z,1.70
2019-03-20T06:32:08.649Z,1.70
2019-03-20T06:33:21.878Z,1.80
2019-03-20T06:34:35.104Z,1.90
2019-03-20T06:35:48.325Z,1.90
2019-03-20T06:37:01.555Z,1.90
2019-03-20T06:38:14.793Z,2.00
2019-03-20T06:39:28.019Z,2.00
2019-03-20T06:40:41.259Z,2.00
2019-03-20T06:41:54.486Z,2.00
2019-03-20T06:43:07.709Z,1.90
2019-03-20T06:44:21.533Z,2.00
2019-03-20T06:45:34.749Z,2.00
2019-03-20T06:46:47.980Z,2.10
2019-03-20T06:48:01.206Z,2.10
2019-03-20T06:49:14.439Z,2.20
2019-03-20T06:50:27.674Z,2.10
2019-03-20T06:51:41.893Z,2.20
2019-03-20T06:52:55.126Z,2.20
2019-03-20T06:54:08.358Z,2.20
2019-03-20T06:55:21.609Z,2.30
2019-03-20T06:56:34.855Z,2.30
2019-03-20T06:57:48.080Z,2.40
2019-03-20T06:59:23.749Z,2.50
2019-03-20T07:00:54.491Z,2.50
2019-03-20T07:02:08.049Z,2.60
2019-03-20T07:03:24.535Z,2.50
2019-03-20T07:05:06.463Z,2.50
2019-03-20T07:06:20.669Z,2.60
2019-03-20T07:07:44.055Z,2.60
2019-03-20T07:09:11.494Z,2.60
2019-03-20T07:10:48.880Z,2.70
2019-03-20T07:12:02.109Z,2.70
2019-03-20T07:13:15.348Z,2.80
2019-03-20T07:14:28.576Z,2.90
2019-03-20T07:15:41.800Z,2.90
2019-03-20T07:16:55.030Z,3.00
2019-03-20T07:18:08.257Z,3.10
2019-03-20T07:19:21.566Z,3.10
2019-03-20T07:20:34.810Z,3.10
2019-03-20T07:21:48.022Z,3.20
2019-03-20T07:23:01.252Z,3.30
2019-03-20T07:24:14.475Z,3.30
2019-03-20T07:25:27.725Z,3.20
2019-03-20T07:26:40.959Z,3.30
2019-03-20T07:27:54.183Z,3.30
2019-03-20T07:29:07.417Z,3.30
2019-03-20T07:30:20.641Z,3.30
2019-03-20T07:31:33.885Z,3.30
2019-03-20T07:32:47.118Z,3.40
2019-03-20T07:34:00.354Z,3.50
2019-03-20T07:35:13.585Z,3.60
2019-03-20T07:36:26.832Z,3.60
2019-03-20T07:37:40.051Z,3.50
2019-03-20T07:38:53.280Z,3.60
2019-03-20T07:40:08.651Z,3.60
2019-03-20T07:41:21.873Z,3.70
2019-03-20T07:42:35.123Z,3.70
2019-03-20T07:43:48.358Z,3.80
2019-03-20T07:45:04.334Z,3.80
2019-03-20T07:46:17.566Z,3.80
2019-03-20T07:47:30.793Z,3.90
2019-03-20T07:48:44.017Z,3.90
2019-03-20T07:49:57.233Z,3.90
2019-03-20T07:51:10.470Z,4.00
2019-03-20T07:52:23.782Z,4.20
2019-03-20T07:53:37.010Z,4.20
2019-03-20T07:54:50.237Z,4.20
2019-03-20T07:56:03.470Z,4.20
2019-03-20T07:57:16.705Z,4.20
2019-03-20T07:58:29.946Z,4.30
2019-03-20T07:59:43.169Z,4.30
2019-03-20T08:00:56.394Z,4.40
2019-03-20T08:02:09.614Z,4.40
2019-03-20T08:03:22.847Z,4.50
2019-03-20T08:04:36.066Z,4.60
2019-03-20T08:05:49.290Z,4.70
2019-03-20T08:07:02.582Z,4.80
2019-03-20T08:08:15.809Z,4.80
2019-03-20T08:09:29.066Z,4.90
2019-03-20T08:10:42.345Z,4.90
2019-03-20T08:11:55.570Z,4.90
2019-03-20T08:13:08.808Z,4.90
2019-03-20T08:14:22.282Z,5.00
2019-03-20T08:15:35.505Z,5.10
2019-03-20T08:16:49.366Z,5.10
2019-03-20T08:18:02.607Z,5.20
2019-03-20T08:19:15.838Z,5.30
2019-03-20T08:20:30.058Z,5.30
2019-03-20T08:21:43.295Z,5.40
2019-03-20T08:22:56.523Z,5.50
2019-03-20T08:24:09.769Z,5.50
2019-03-20T08:25:22.993Z,5.60
2019-03-20T08:26:36.218Z,5.60
2019-03-20T08:27:49.446Z,5.70
2019-03-20T08:29:02.673Z,5.80
2019-03-20T08:30:16.860Z,5.90
2019-03-20T08:31:30.093Z,6.00
2019-03-20T08:32:46.564Z,6.00
2019-03-20T08:33:59.783Z,6.10
2019-03-20T08:35:13.645Z,6.20
2019-03-20T08:36:26.893Z,6.20
2019-03-20T08:37:40.354Z,6.30
2019-03-20T08:38:53.582Z,6.20
2019-03-20T08:40:10.855Z,6.30
2019-03-20T08:41:24.084Z,6.30
2019-03-20T08:42:37.327Z,6.30
2019-03-20T08:43:50.566Z,6.30
2019-03-20T08:45:05.655Z,6.40
2019-03-20T08:46:18.888Z,6.40
2019-03-20T08:47:32.113Z,6.50
2019-03-20T08:48:45.362Z,6.60
2019-03-20T08:49:58.574Z,6.70
2019-03-20T08:51:11.793Z,6.80
2019-03-20T08:52:25.018Z,6.90
2019-03-20T08:53:38.238Z,6.90
2019-03-20T08:54:51.478Z,6.90
2019-03-20T08:56:04.711Z,7.00
2019-03-20T08:57:17.946Z,7.10
2019-03-20T08:58:31.169Z,7.20
2019-03-20T08:59:44.397Z,7.30
2019-03-20T09:00:57.631Z,7.30
2019-03-20T09:02:10.853Z,7.30
2019-03-20T09:03:25.368Z,7.30
2019-03-20T09:04:38.827Z,7.30
2019-03-20T09:05:52.045Z,7.40
2019-03-20T09:07:05.277Z,7.50
2019-03-20T09:08:28.561Z,7.50
2019-03-20T09:09:33.432Z,7.40
2019-03-20T09:10:46.658Z,7.40
2019-03-20T09:11:59.904Z,7.50
2019-03-20T09:13:13.127Z,7.60
2019-03-20T09:14:26.357Z,7.60
2019-03-20T09:15:39.581Z,7.60
2019-03-20T09:16:52.810Z,7.70
2019-03-20T09:18:06.045Z,7.80
2019-03-20T09:19:19.263Z,7.70
2019-03-20T09:20:32.492Z,7.90
2019-03-20T09:21:45.786Z,7.80
2019-03-20T09:22:59.583Z,7.70
2019-03-20T09:24:12.821Z,7.80
2019-03-20T09:25:26.416Z,7.90
2019-03-20T09:26:39.665Z,8.00
2019-03-20T09:27:52.934Z,8.00
2019-03-20T09:29:06.162Z,8.10
2019-03-20T09:30:25.801Z,8.20
2019-03-20T09:31:39.029Z,8.30
2019-03-20T09:32:52.255Z,8.40
2019-03-20T09:34:05.608Z,8.50
2019-03-20T09:35:18.989Z,8.50
2019-03-20T09:36:42.487Z,8.60
2019-03-20T09:37:51.853Z,8.60
2019-03-20T09:39:02.189Z,8.70
2019-03-20T09:40:17.614Z,8.80
2019-03-20T09:41:30.838Z,9.00
2019-03-20T09:42:44.075Z,9.10
2019-03-20T09:43:57.294Z,9.10
2019-03-20T09:45:13.317Z,9.20
2019-03-20T09:46:26.540Z,9.30
2019-03-20T09:47:39.818Z,9.30
2019-03-20T09:48:53.048Z,9.40
2019-03-20T09:50:09.274Z,9.40
2019-03-20T09:51:22.497Z,9.30
2019-03-20T09:52:35.736Z,9.20
2019-03-20T09:53:48.965Z,9.20
2019-03-20T09:55:02.185Z,9.10
2019-03-20T09:56:15.410Z,9.20
2019-03-20T09:57:28.626Z,9.20
2019-03-20T09:58:41.855Z,9.20
2019-03-20T09:59:55.668Z,9.00
2019-03-20T10:01:08.885Z,8.90
2019-03-20T10:02:22.110Z,9.00
2019-03-20T10:03:35.333Z,9.00
2019-03-20T10:04:48.551Z,8.90
2019-03-20T10:06:01.795Z,8.90
2019-03-20T10:07:15.025Z,8.90
2019-03-20T10:08:28.257Z,8.90
2019-03-20T10:09:41.506Z,8.90
2019-03-20T10:10:54.736Z,9.00
2019-03-20T10:12:08.980Z,9.00
2019-03-20T10:13:22.202Z,9.10
2019-03-20T10:14:35.426Z,9.10
2019-03-20T10:15:48.654Z,9.30
2019-03-20T10:17:01.877Z,9.40
2019-03-20T10:18:15.101Z,9.50
2019-03-20T10:19:28.322Z,9.50
2019-03-20T10:20:44.417Z,9.60
2019-03-20T10:21:57.641Z,9.50
2019-03-20T10:23:10.869Z,9.50
2019-03-20T10:24:24.093Z,9.30
2019-03-20T10:25:44.637Z,9.20
2019-03-20T10:26:52.266Z,9.20
2019-03-20T10:28:05.486Z,9.30
2019-03-20T10:29:18.718Z,9.60
2019-03-20T10:30:31.955Z,9.70
2019-03-20T10:31:45.177Z,9.70
2019-03-20T10:32:58.449Z,9.60
2019-03-20T10:34:11.716Z,9.40
2019-03-20T10:35:24.951Z,9.30
2019-03-20T10:36:38.171Z,9.30
2019-03-20T10:37:51.406Z,9.10
2019-03-20T10:39:07.017Z,9.20
2019-03-20T10:40:21.202Z,9.30
2019-03-20T10:41:34.427Z,9.50
2019-03-20T10:42:47.654Z,9.50
2019-03-20T10:44:00.873Z,9.70
2019-03-20T10:45:15.196Z,9.70
2019-03-20T10:46:28.424Z,9.80
2019-03-20T10:47:41.737Z,10.00
2019-03-20T10:48:56.302Z,10.20
2019-03-20T10:50:12.453Z,10.30
2019-03-20T10:51:25.687Z,10.50
2019-03-20T10:52:38.934Z,10.70
2019-03-20T10:53:52.149Z,11.00
2019-03-20T10:55:07.109Z,11.20
2019-03-20T10:56:20.334Z,11.40
2019-03-20T10:57:33.576Z,11.60
2019-03-20T10:58:46.801Z,11.80
2019-03-20T11:00:00.026Z,11.90
2019-03-20T11:01:13.245Z,12.10
2019-03-20T11:02:26.493Z,12.40
2019-03-20T11:03:39.714Z,12.50
2019-03-20T11:04:53.882Z,12.60
2019-03-20T11:06:07.105Z,12.70
2019-03-20T11:07:20.329Z,12.70
2019-03-20T11:08:33.562Z,12.80
2019-03-20T11:09:46.793Z,12.70
2019-03-20T11:11:00.029Z,12.90
2019-03-20T11:12:13.258Z,12.90
2019-03-20T11:13:26.491Z,13.00
2019-03-20T11:14:39.793Z,13.10
2019-03-20T11:15:53.022Z,13.10
2019-03-20T11:17:06.256Z,12.90
2019-03-20T11:18:19.503Z,12.80
2019-03-20T11:19:32.711Z,12.90
2019-03-20T11:20:45.945Z,13.00
2019-03-20T11:21:59.153Z,12.90
2019-03-20T11:23:12.404Z,12.80
2019-03-20T11:24:25.858Z,12.70
2019-03-20T11:25:39.091Z,12.60
2019-03-20T11:26:52.318Z,12.90
2019-03-20T11:28:05.561Z,13.00
2019-03-20T11:29:21.570Z,13.00
2019-03-20T11:30:34.002Z,13.10
2019-03-20T11:31:47.230Z,13.30
2019-03-20T11:33:00.976Z,13.60
2019-03-20T11:34:14.237Z,14.10
2019-03-20T11:35:27.462Z,13.80
2019-03-20T11:36:40.702Z,13.60
2019-03-20T11:37:53.931Z,13.40
2019-03-20T11:39:09.094Z,13.30
2019-03-20T11:40:30.084Z,13.20
2019-03-20T11:41:43.318Z,13.40
2019-03-20T11:42:56.789Z,13.90
2019-03-20T11:44:10.014Z,14.40
2019-03-20T11:45:23.635Z,14.80
2019-03-20T11:46:37.066Z,15.20
2019-03-20T11:47:50.293Z,15.80
2019-03-20T11:49:03.523Z,16.40
2019-03-20T11:50:20.010Z,16.80
2019-03-20T11:51:33.237Z,16.90
2019-03-20T11:52:46.494Z,16.60
2019-03-20T11:53:59.737Z,15.90
2019-03-20T11:55:12.971Z,14.90
2019-03-20T11:56:26.194Z,14.60
2019-03-20T11:57:39.427Z,14.40
2019-03-20T11:58:52.686Z,14.20
2019-03-20T12:00:11.900Z,14.40
2019-03-20T12:01:25.142Z,14.60
2019-03-20T12:02:38.370Z,14.60
2019-03-20T12:03:52.075Z,14.40
2019-03-20T12:05:06.859Z,14.20
2019-03-20T12:06:20.076Z,14.50
2019-03-20T12:07:34.930Z,15.20
2019-03-20T12:08:48.151Z,15.50
2019-03-20T12:10:01.385Z,15.10
2019-03-20T12:11:15.938Z,15.00
2019-03-20T12:12:29.234Z,14.70
2019-03-20T12:13:42.473Z,14.20
2019-03-20T12:14:55.702Z,13.70
2019-03-20T12:16:08.938Z,13.40
2019-03-20T12:17:22.173Z,13.30
2019-03-20T12:18:35.405Z,13.80
2019-03-20T12:19:48.639Z,14.20
2019-03-20T12:21:01.879Z,14.00
2019-03-20T12:22:15.101Z,13.90
2019-03-20T12:23:28.334Z,13.60
2019-03-20T12:24:41.602Z,13.40
2019-03-20T12:25:54.822Z,13.40
2019-03-20T12:27:15.087Z,14.20
2019-03-20T12:28:23.022Z,15.40
2019-03-20T12:29:36.245Z,16.80
2019-03-20T12:30:50.194Z,17.80
2019-03-20T12:32:03.422Z,18.70
2019-03-20T12:33:16.662Z,19.70
2019-03-20T12:34:29.895Z,20.50
2019-03-20T12:35:44.754Z,21.10
2019-03-20T12:36:57.982Z,20.40
2019-03-20T12:38:14.954Z,21.30
2019-03-20T12:39:26.179Z,22.20
2019-03-20T12:40:39.416Z,22.70
2019-03-20T12:41:52.642Z,23.10
2019-03-20T12:43:05.940Z,23.80
2019-03-20T12:44:19.943Z,23.50
2019-03-20T12:45:34.368Z,23.70
2019-03-20T12:46:47.594Z,22.80
2019-03-20T12:48:00.817Z,22.50
2019-03-20T12:49:14.041Z,22.40
2019-03-20T12:50:27.291Z,21.50
2019-03-20T12:51:40.523Z,20.70
2019-03-20T12:52:53.747Z,20.70
2019-03-20T12:54:06.975Z,20.90
2019-03-20T12:55:21.075Z,21.70
2019-03-20T12:56:34.351Z,22.20
2019-03-20T12:57:47.579Z,21.90
2019-03-20T12:59:00.814Z,21.30
2019-03-20T13:00:22.457Z,20.50
2019-03-20T13:01:35.688Z,19.90
2019-03-20T13:02:48.991Z,18.90
2019-03-20T13:04:02.216Z,19.30
2019-03-20T13:05:15.892Z,19.90
2019-03-20T13:06:29.128Z,19.90
2019-03-20T13:07:42.540Z,20.60
2019-03-20T13:08:55.768Z,21.10
2019-03-20T13:10:17.218Z,21.70
2019-03-20T13:11:29.764Z,21.60
2019-03-20T13:12:45.888Z,22.20
2019-03-20T13:13:59.130Z,22.40
2019-03-20T13:15:15.047Z,22.30
2019-03-20T13:16:28.292Z,22.00
2019-03-20T13:17:41.542Z,22.30
2019-03-20T13:18:54.775Z,22.30
2019-03-20T13:20:09.944Z,22.70
2019-03-20T13:21:23.175Z,22.20
2019-03-20T13:22:36.397Z,22.50
2019-03-20T13:23:49.631Z,23.10
2019-03-20T13:25:03.418Z,22.50
2019-03-20T13:26:16.653Z,22.80
2019-03-20T13:27:29.878Z,22.10
2019-03-20T13:28:43.125Z,22.10
2019-03-20T13:29:56.353Z,22.10
2019-03-20T13:31:18.582Z,21.90
2019-03-20T13:32:31.823Z,21.80
2019-03-20T13:33:45.046Z,21.80
2019-03-20T13:34:58.286Z,22.10
2019-03-20T13:36:11.515Z,22.30
2019-03-20T13:37:24.748Z,22.30
2019-03-20T13:38:37.977Z,22.80
2019-03-20T13:39:51.209Z,23.40
2019-03-20T13:41:04.453Z,23.20
2019-03-20T13:42:17.670Z,23.40
2019-03-20T13:43:30.918Z,22.90
2019-03-20T13:44:44.142Z,23.40
2019-03-20T13:45:57.384Z,23.30
2019-03-20T13:47:10.609Z,23.10
2019-03-20T13:48:23.836Z,23.30
2019-03-20T13:49:37.074Z,23.40
2019-03-20T13:50:50.320Z,24.20
2019-03-20T13:52:03.550Z,24.70
2019-03-20T13:53:16.771Z,24.40
2019-03-20T13:54:30.014Z,24.90
2019-03-20T13:55:43.251Z,24.80
2019-03-20T13:56:56.491Z,25.10
2019-03-20T13:58:09.711Z,25.00
2019-03-20T13:59:22.955Z,25.50
2019-03-20T14:00:36.198Z,25.50
2019-03-20T14:01:49.423Z,25.00
2019-03-20T14:03:02.651Z,25.00
2019-03-20T14:04:15.898Z,24.60
2019-03-20T14:05:29.131Z,24.20
2019-03-20T14:06:42.382Z,24.30
2019-03-20T14:07:55.609Z,24.70
2019-03-20T14:09:08.837Z,24.70
2019-03-20T14:10:25.827Z,25.80
2019-03-20T14:11:39.145Z,26.50
2019-03-20T14:12:52.381Z,26.50
2019-03-20T14:14:05.619Z,27.00
2019-03-20T14:15:19.074Z,28.00
2019-03-20T14:16:32.560Z,28.80
2019-03-20T14:17:45.955Z,28.80
2019-03-20T14:18:59.222Z,29.20
2019-03-20T14:20:28.563Z,29.40
2019-03-20T14:21:41.800Z,29.20
2019-03-20T14:22:55.040Z,27.80
2019-03-20T14:24:08.535Z,28.60
2019-03-20T14:25:22.098Z,29.10
2019-03-20T14:26:35.322Z,28.80
2019-03-20T14:27:48.615Z,28.80
2019-03-20T14:29:01.854Z,28.40
2019-03-20T14:30:19.918Z,28.70
2019-03-20T14:31:33.153Z,28.00
2019-03-20T14:32:46.392Z,27.60
2019-03-20T14:33:59.611Z,28.10
2019-03-20T14:35:12.889Z,28.50
2019-03-20T14:36:26.169Z,28.40
2019-03-20T14:37:39.409Z,27.90
2019-03-20T14:38:52.630Z,28.20
2019-03-20T14:40:09.104Z,28.00
2019-03-20T14:41:22.336Z,28.70
2019-03-20T14:42:35.566Z,28.60
2019-03-20T14:43:48.799Z,28.70
2019-03-20T14:45:02.131Z,28.20
2019-03-20T14:46:15.358Z,28.60
2019-03-20T14:47:28.581Z,28.40
2019-03-20T14:48:41.854Z,28.60
2019-03-20T14:49:55.076Z,29.20
2019-03-20T14:51:08.310Z,29.10
2019-03-20T14:52:23.178Z,28.10
2019-03-20T14:53:36.423Z,27.90
2019-03-20T14:54:49.641Z,27.60
2019-03-20T14:56:02.873Z,28.50
2019-03-20T14:57:16.095Z,28.30
2019-03-20T14:58:29.321Z,28.60
2019-03-20T14:59:42.572Z,28.70
2019-03-20T15:00:55.802Z,28.30
2019-03-20T15:02:09.101Z,27.90
2019-03-20T15:03:22.344Z,28.50
2019-03-20T15:04:35.566Z,27.40
2019-03-20T15:05:48.813Z,28.20
2019-03-20T15:07:02.117Z,28.70
2019-03-20T15:08:15.346Z,28.40
2019-03-20T15:09:28.587Z,27.40
2019-03-20T15:10:45.958Z,27.90
2019-03-20T15:11:56.792Z,28.60
2019-03-20T15:13:10.090Z,28.00
2019-03-20T15:14:24.657Z,28.40
2019-03-20T15:15:46.836Z,28.30
2019-03-20T15:17:00.058Z,28.70
2019-03-20T15:18:13.311Z,27.60
2019-03-20T15:19:26.541Z,27.10
2019-03-20T15:20:39.776Z,27.30
2019-03-20T15:21:53.015Z,27.40
2019-03-20T15:23:06.253Z,26.90
2019-03-20T15:24:19.514Z,26.90
2019-03-20T15:25:32.742Z,25.50
2019-03-20T15:26:45.966Z,25.10
2019-03-20T15:27:59.194Z,24.90
2019-03-20T15:29:12.413Z,25.00
2019-03-20T15:30:29.689Z,25.10
2019-03-20T15:31:43.131Z,24.30
2019-03-20T15:32:56.358Z,23.80
2019-03-20T15:34:09.598Z,23.10
2019-03-20T15:35:22.892Z,22.60
2019-03-20T15:36:36.143Z,21.50
2019-03-20T15:37:49.370Z,21.70
2019-03-20T15:39:02.600Z,21.50
2019-03-20T15:40:26.411Z,21.20
2019-03-20T15:41:39.633Z,21.40
2019-03-20T15:42:52.878Z,20.50
2019-03-20T15:44:06.097Z,20.30
2019-03-20T15:45:19.475Z,20.60
2019-03-20T15:46:32.697Z,20.20
2019-03-20T15:47:46.005Z,19.90
2019-03-20T15:48:59.248Z,20.40
2019-03-20T15:50:17.013Z,19.80
2019-03-20T15:51:30.234Z,20.10
2019-03-20T15:52:43.461Z,20.40
2019-03-20T15:53:56.690Z,20.40
2019-03-20T15:55:18.922Z,20.80
2019-03-20T15:56:32.161Z,20.40
2019-03-20T15:57:45.388Z,20.30
2019-03-20T15:58:58.613Z,20.20
2019-03-20T16:00:15.102Z,19.70
2019-03-20T16:01:28.329Z,19.90
2019-03-20T16:02:41.566Z,19.80
2019-03-20T16:03:54.791Z,19.60
2019-03-20T16:05:08.268Z,19.30
2019-03-20T16:06:21.510Z,19.30
2019-03-20T16:07:34.745Z,19.20
2019-03-20T16:08:47.979Z,19.50
2019-03-20T16:10:01.198Z,19.70
2019-03-20T16:11:14.449Z,19.50